THA310 VNKT-VTBS
Flight info
| Callsign | THA310 |
|---|---|
| Flight time | N/A |
| Altitude | 41000 |
| Route | IGRIS1C AHALE R344 RAJ G463 BGO L507 IGONI WILLA1D |
| Aircraft | A359/H-SDE2E3GHIJ3J4J5LM1ORWXY/LB1D1 |
Departure
| Time | 2025-12-29 16:27 |
|---|---|
| Airport | Tribhuvan International Airport (VNKT) |
Arrival
| Time | N/A |
|---|---|
| Airport | Suvarnabhumi Airport (VTBS) |
| Time | Latitude | Longitude | Altitude | Speed | Heading |
|---|---|---|---|---|---|
| 2025-12-29 15:52 | 27.69818 | 85.35769 | 4364 ft | 0 kts | 291° |
| 2025-12-29 16:10 | 27.69804 | 85.35824 | 4353 ft | 3 kts | 270° |
| 2025-12-29 16:11 | 27.69811 | 85.35861 | 4353 ft | 3 kts | 223° |
| 2025-12-29 16:11 | 27.69819 | 85.35869 | 4354 ft | 4 kts | 202° |
| 2025-12-29 16:15 | 27.69764 | 85.35840 | 4364 ft | 10 kts | 202° |
| 2025-12-29 16:15 | 27.69585 | 85.35761 | 4354 ft | 17 kts | 202° |
| 2025-12-29 16:16 | 27.69464 | 85.35706 | 4358 ft | 20 kts | 202° |
| 2025-12-29 16:16 | 27.69165 | 85.35569 | 4348 ft | 18 kts | 202° |
| 2025-12-29 16:17 | 27.69137 | 85.35557 | 4342 ft | 5 kts | 198° |
| 2025-12-29 16:17 | 27.69113 | 85.35554 | 4340 ft | 0 kts | 178° |
| 2025-12-29 16:23 | 27.69044 | 85.35610 | 4338 ft | 16 kts | 145° |
| 2025-12-29 16:24 | 27.68750 | 85.35501 | 4338 ft | 27 kts | 202° |
| 2025-12-29 16:24 | 27.68471 | 85.35350 | 4322 ft | 11 kts | 234° |
| 2025-12-29 16:25 | 27.68419 | 85.35338 | 4325 ft | 2 kts | 74° |
| 2025-12-29 16:25 | 27.68493 | 85.35385 | 4329 ft | 0 kts | 22° |
| 2025-12-29 16:26 | 27.70051 | 85.36090 | 4415 ft | 161 kts | 22° |
| 2025-12-29 16:27 | 27.72139 | 85.37061 | 5736 ft | 166 kts | 25° |
| 2025-12-29 16:27 | 27.73867 | 85.39132 | 6142 ft | 205 kts | 68° |
| 2025-12-29 16:28 | 27.74127 | 85.42613 | 6713 ft | 241 kts | 95° |
| 2025-12-29 16:28 | 27.72653 | 85.46050 | 8140 ft | 255 kts | 139° |
| 2025-12-29 16:29 | 27.69403 | 85.47924 | 9365 ft | 283 kts | 160° |
| 2025-12-29 16:29 | 27.65723 | 85.50173 | 10425 ft | 321 kts | 143° |
| 2025-12-29 16:29 | 27.64144 | 85.52036 | 10752 ft | 346 kts | 128° |
| 2025-12-29 16:30 | 27.61291 | 85.60163 | 12253 ft | 388 kts | 110° |
| 2025-12-29 16:31 | 27.58427 | 85.65386 | 13644 ft | 398 kts | 131° |
| 2025-12-29 16:31 | 27.54648 | 85.70085 | 14881 ft | 409 kts | 136° |
| 2025-12-29 16:32 | 27.50653 | 85.74695 | 16270 ft | 418 kts | 137° |
| 2025-12-29 16:32 | 27.46569 | 85.79493 | 17626 ft | 429 kts | 136° |
| 2025-12-29 16:33 | 27.42427 | 85.84450 | 18858 ft | 439 kts | 136° |
| 2025-12-29 16:33 | 27.38221 | 85.89524 | 20061 ft | 449 kts | 136° |
| 2025-12-29 16:33 | 27.36073 | 85.92113 | 20594 ft | 455 kts | 136° |
| 2025-12-29 16:34 | 27.29506 | 86.00017 | 22567 ft | 468 kts | 136° |
| 2025-12-29 16:35 | 27.25002 | 86.05409 | 23783 ft | 477 kts | 137° |
| 2025-12-29 16:35 | 27.20467 | 86.10897 | 24770 ft | 486 kts | 133° |
| 2025-12-29 16:37 | 27.08336 | 86.29972 | 27924 ft | 511 kts | 127° |
| 2025-12-29 16:39 | 26.91593 | 86.56796 | 31387 ft | 539 kts | 128° |
| 2025-12-29 16:41 | 26.73945 | 86.84726 | 34089 ft | 558 kts | 129° |
| 2025-12-29 16:43 | 26.55897 | 87.13036 | 36566 ft | 560 kts | 130° |
| 2025-12-29 16:45 | 26.32083 | 87.31884 | 38690 ft | 520 kts | 171° |
| 2025-12-29 16:47 | 26.04593 | 87.40903 | 40380 ft | 514 kts | 172° |
| 2025-12-29 16:49 | 25.77329 | 87.50160 | 41075 ft | 511 kts | 172° |
| 2025-12-29 16:51 | 25.51485 | 87.64161 | 41075 ft | 541 kts | 149° |
| 2025-12-29 16:52 | 25.31054 | 87.82478 | 41075 ft | 540 kts | 149° |
| 2025-12-29 16:55 | 25.04662 | 88.05778 | 41077 ft | 539 kts | 149° |
| 2025-12-29 16:57 | 24.82310 | 88.25718 | 41077 ft | 542 kts | 147° |
| 2025-12-29 16:59 | 24.59341 | 88.47164 | 41075 ft | 541 kts | 148° |
| 2025-12-29 17:01 | 24.40024 | 88.72399 | 41075 ft | 571 kts | 115° |
| 2025-12-29 17:03 | 24.29167 | 89.05161 | 41071 ft | 571 kts | 115° |
| 2025-12-29 17:05 | 24.18082 | 89.37767 | 41068 ft | 571 kts | 115° |
| 2025-12-29 17:07 | 24.06793 | 89.70228 | 41068 ft | 569 kts | 116° |
| 2025-12-29 17:09 | 23.95096 | 90.02415 | 41066 ft | 570 kts | 115° |
| 2025-12-29 17:11 | 23.84433 | 90.35017 | 41069 ft | 569 kts | 116° |
| 2025-12-29 17:13 | 23.63697 | 90.58289 | 41061 ft | 533 kts | 149° |
| 2025-12-29 17:15 | 23.40780 | 90.78802 | 41047 ft | 533 kts | 149° |
| 2025-12-29 17:17 | 23.17903 | 90.99259 | 41041 ft | 532 kts | 149° |
| 2025-12-29 17:19 | 22.95193 | 91.19950 | 41039 ft | 533 kts | 149° |
| 2025-12-29 17:20 | 22.75333 | 91.38014 | 41030 ft | 532 kts | 149° |
| 2025-12-29 17:23 | 22.46967 | 91.63680 | 41019 ft | 532 kts | 149° |
| 2025-12-29 17:25 | 22.27055 | 91.81592 | 41017 ft | 532 kts | 149° |
| 2025-12-29 17:27 | 22.01382 | 92.04520 | 41012 ft | 532 kts | 149° |
| 2025-12-29 17:29 | 21.81312 | 92.22123 | 41009 ft | 531 kts | 150° |
| 2025-12-29 17:31 | 21.58630 | 92.42487 | 41012 ft | 537 kts | 144° |
| 2025-12-29 17:33 | 21.36868 | 92.64432 | 41016 ft | 536 kts | 145° |
| 2025-12-29 17:35 | 21.12286 | 92.88826 | 41009 ft | 535 kts | 145° |
| 2025-12-29 17:37 | 20.93165 | 93.07708 | 41011 ft | 534 kts | 145° |
| 2025-12-29 17:39 | 20.68621 | 93.31882 | 41008 ft | 533 kts | 144° |
| 2025-12-29 17:41 | 20.49528 | 93.50655 | 41014 ft | 534 kts | 144° |
| 2025-12-29 17:43 | 20.24910 | 93.74684 | 41009 ft | 533 kts | 144° |
| 2025-12-29 17:45 | 20.05764 | 93.93301 | 41005 ft | 532 kts | 144° |
| 2025-12-29 17:47 | 19.82067 | 94.16254 | 41013 ft | 532 kts | 144° |
| 2025-12-29 17:49 | 19.62939 | 94.34710 | 41002 ft | 531 kts | 144° |
| 2025-12-29 17:51 | 19.38366 | 94.58322 | 40997 ft | 529 kts | 143° |
| 2025-12-29 17:53 | 19.19203 | 94.76558 | 40978 ft | 528 kts | 144° |
| 2025-12-29 17:55 | 18.94340 | 94.99447 | 40973 ft | 527 kts | 144° |
| 2025-12-29 17:57 | 18.75025 | 95.17228 | 40962 ft | 526 kts | 144° |
| 2025-12-29 17:59 | 18.50203 | 95.39995 | 40955 ft | 525 kts | 144° |
| 2025-12-29 18:01 | 18.31098 | 95.57941 | 40951 ft | 526 kts | 143° |
| 2025-12-29 18:03 | 18.06793 | 95.81101 | 40957 ft | 523 kts | 143° |
| 2025-12-29 18:05 | 17.87928 | 95.99002 | 40956 ft | 521 kts | 143° |
| 2025-12-29 18:07 | 17.63778 | 96.21839 | 40951 ft | 518 kts | 143° |
| 2025-12-29 18:09 | 17.45084 | 96.39457 | 40952 ft | 515 kts | 142° |
| 2025-12-29 18:10 | 17.27343 | 96.57921 | 40945 ft | 519 kts | 132° |
| 2025-12-29 18:13 | 17.07504 | 96.84804 | 40939 ft | 518 kts | 131° |
| 2025-12-29 18:15 | 16.87628 | 97.11561 | 40938 ft | 518 kts | 131° |
| 2025-12-29 18:17 | 16.72166 | 97.32308 | 40935 ft | 517 kts | 131° |
| 2025-12-29 18:19 | 16.52352 | 97.58805 | 40937 ft | 515 kts | 131° |
| 2025-12-29 18:21 | 16.36849 | 97.79245 | 40938 ft | 510 kts | 137° |
| 2025-12-29 18:23 | 16.13069 | 98.01059 | 40948 ft | 505 kts | 142° |
| 2025-12-29 18:25 | 15.94489 | 98.17732 | 40949 ft | 505 kts | 142° |
| 2025-12-29 18:27 | 15.70571 | 98.39128 | 40972 ft | 504 kts | 142° |
| 2025-12-29 18:29 | 15.51979 | 98.55717 | 40993 ft | 503 kts | 142° |
| 2025-12-29 18:31 | 15.31253 | 98.80499 | 41006 ft | 507 kts | 132° |
| 2025-12-29 18:33 | 15.15686 | 99.00346 | 40517 ft | 508 kts | 132° |
| 2025-12-29 18:35 | 14.97636 | 99.23286 | 38621 ft | 519 kts | 131° |
| 2025-12-29 18:37 | 14.80204 | 99.45475 | 34304 ft | 522 kts | 131° |
| 2025-12-29 18:39 | 14.61857 | 99.68648 | 28360 ft | 505 kts | 132° |
| 2025-12-29 18:40 | 14.48913 | 99.84960 | 24784 ft | 477 kts | 132° |
| 2025-12-29 18:41 | 14.44945 | 99.90379 | 23590 ft | 473 kts | 121° |
| 2025-12-29 18:41 | 14.43715 | 99.93487 | 23345 ft | 463 kts | 110° |
| 2025-12-29 18:42 | 14.40561 | 100.05620 | 22227 ft | 421 kts | 107° |
| 2025-12-29 18:42 | 14.39123 | 100.11390 | 21477 ft | 408 kts | 106° |
| 2025-12-29 18:43 | 14.37712 | 100.17028 | 20960 ft | 405 kts | 106° |
| 2025-12-29 18:43 | 14.37010 | 100.19834 | 20723 ft | 403 kts | 106° |
| 2025-12-29 18:44 | 14.35616 | 100.25406 | 20237 ft | 399 kts | 106° |
| 2025-12-29 18:44 | 14.34236 | 100.30923 | 19758 ft | 395 kts | 106° |
| 2025-12-29 18:45 | 14.32874 | 100.36350 | 19291 ft | 392 kts | 106° |
| 2025-12-29 18:45 | 14.31515 | 100.41766 | 18819 ft | 388 kts | 105° |
| 2025-12-29 18:46 | 14.29496 | 100.49800 | 18086 ft | 383 kts | 105° |
| 2025-12-29 18:46 | 14.28164 | 100.55101 | 17612 ft | 380 kts | 105° |
| 2025-12-29 18:47 | 14.27503 | 100.57737 | 17377 ft | 379 kts | 105° |
| 2025-12-29 18:47 | 14.26183 | 100.62971 | 16923 ft | 376 kts | 105° |
| 2025-12-29 18:48 | 14.24872 | 100.68167 | 16474 ft | 373 kts | 105° |
| 2025-12-29 18:48 | 14.22892 | 100.73019 | 16028 ft | 367 kts | 132° |
| 2025-12-29 18:49 | 14.18543 | 100.75444 | 15405 ft | 360 kts | 171° |
| 2025-12-29 18:49 | 14.13948 | 100.75963 | 14640 ft | 350 kts | 176° |
| 2025-12-29 18:50 | 14.07125 | 100.74875 | 13987 ft | 320 kts | 195° |
| 2025-12-29 18:50 | 14.02860 | 100.73708 | 13159 ft | 315 kts | 195° |
| 2025-12-29 18:51 | 14.00740 | 100.73137 | 12710 ft | 314 kts | 195° |
| 2025-12-29 18:51 | 13.96627 | 100.72040 | 11849 ft | 312 kts | 195° |
| 2025-12-29 18:52 | 13.92439 | 100.70928 | 11101 ft | 307 kts | 195° |
| 2025-12-29 18:52 | 13.88332 | 100.69847 | 10398 ft | 303 kts | 195° |
| 2025-12-29 18:53 | 13.84253 | 100.68763 | 9809 ft | 303 kts | 194° |
| 2025-12-29 18:53 | 13.80203 | 100.67690 | 9299 ft | 294 kts | 194° |
| 2025-12-29 18:54 | 13.74549 | 100.66194 | 8688 ft | 271 kts | 194° |
| 2025-12-29 18:54 | 13.70936 | 100.65240 | 8136 ft | 264 kts | 194° |
| 2025-12-29 18:55 | 13.69157 | 100.64772 | 7768 ft | 265 kts | 195° |
| 2025-12-29 18:55 | 13.65588 | 100.63828 | 7121 ft | 263 kts | 195° |
| 2025-12-29 18:56 | 13.62109 | 100.62908 | 6620 ft | 258 kts | 195° |
| 2025-12-29 18:56 | 13.58646 | 100.61994 | 6119 ft | 256 kts | 195° |
| 2025-12-29 18:57 | 13.55211 | 100.61086 | 5622 ft | 254 kts | 195° |
| 2025-12-29 18:57 | 13.51811 | 100.60189 | 5146 ft | 251 kts | 195° |
| 2025-12-29 18:58 | 13.46860 | 100.59807 | 4511 ft | 235 kts | 146° |
| 2025-12-29 18:58 | 13.45858 | 100.61047 | 4333 ft | 224 kts | 110° |
| 2025-12-29 18:59 | 13.46237 | 100.63953 | 4008 ft | 204 kts | 62° |
| 2025-12-29 18:59 | 13.47588 | 100.66459 | 3566 ft | 199 kts | 59° |
| 2025-12-29 19:00 | 13.49417 | 100.68466 | 3063 ft | 197 kts | 21° |
| 2025-12-29 19:00 | 13.52013 | 100.69083 | 2784 ft | 180 kts | 13° |
| 2025-12-29 19:01 | 13.54375 | 100.69706 | 2329 ft | 170 kts | 15° |
| 2025-12-29 19:01 | 13.56529 | 100.70280 | 1967 ft | 155 kts | 15° |
| 2025-12-29 19:02 | 13.59541 | 100.71079 | 1418 ft | 137 kts | 15° |
| 2025-12-29 19:02 | 13.61356 | 100.71559 | 1078 ft | 135 kts | 16° |
| 2025-12-29 19:03 | 13.62265 | 100.71799 | 898 ft | 134 kts | 15° |
| 2025-12-29 19:03 | 13.64065 | 100.72274 | 543 ft | 134 kts | 14° |
| 2025-12-29 19:04 | 13.65863 | 100.72748 | 211 ft | 134 kts | 15° |
| 2025-12-29 19:04 | 13.67584 | 100.73206 | 117 ft | 125 kts | 15° |
| 2025-12-29 19:05 | 13.69777 | 100.73762 | 1592 ft | 189 kts | 13° |
| 2025-12-29 19:05 | 13.72614 | 100.73858 | 2888 ft | 216 kts | 359° |
| 2025-12-29 19:06 | 13.77220 | 100.73681 | 3991 ft | 222 kts | 358° |
| 2025-12-29 19:06 | 13.78766 | 100.73630 | 3993 ft | 223 kts | 358° |
| 2025-12-29 19:07 | 13.81866 | 100.73525 | 3994 ft | 223 kts | 358° |
| 2025-12-29 19:07 | 13.84972 | 100.73418 | 3992 ft | 223 kts | 358° |
| 2025-12-29 19:08 | 13.88076 | 100.73632 | 3998 ft | 234 kts | 11° |
| 2025-12-29 19:08 | 13.91391 | 100.74252 | 3989 ft | 245 kts | 10° |
| 2025-12-29 19:08 | 13.93100 | 100.74591 | 3988 ft | 258 kts | 14° |
| 2025-12-29 19:09 | 13.97639 | 100.77814 | 3993 ft | 268 kts | 39° |
| 2025-12-29 19:09 | 13.99063 | 100.79049 | 3996 ft | 268 kts | 39° |
| 2025-12-29 19:10 | 14.01442 | 100.83994 | 3997 ft | 273 kts | 98° |
| 2025-12-29 19:11 | 14.00322 | 100.86237 | 3999 ft | 275 kts | 135° |
| 2025-12-29 19:11 | 13.98751 | 100.87201 | 3989 ft | 275 kts | 162° |
| 2025-12-29 19:12 | 13.96208 | 100.87068 | 3831 ft | 267 kts | 205° |
| 2025-12-29 19:12 | 13.93201 | 100.85115 | 3632 ft | 246 kts | 214° |
| 2025-12-29 19:13 | 13.91712 | 100.84126 | 3498 ft | 235 kts | 213° |
| 2025-12-29 19:13 | 13.89035 | 100.82467 | 3297 ft | 215 kts | 211° |
| 2025-12-29 19:13 | 13.87767 | 100.81719 | 3183 ft | 206 kts | 210° |
| 2025-12-29 19:14 | 13.84885 | 100.80296 | 2874 ft | 201 kts | 196° |
| 2025-12-29 19:15 | 13.82192 | 100.79560 | 2558 ft | 200 kts | 194° |
| 2025-12-29 19:15 | 13.79532 | 100.78840 | 2093 ft | 193 kts | 194° |
| 2025-12-29 19:16 | 13.77078 | 100.78188 | 1605 ft | 171 kts | 193° |
| 2025-12-29 19:16 | 13.74889 | 100.77612 | 1174 ft | 154 kts | 193° |
| 2025-12-29 19:17 | 13.72921 | 100.77094 | 802 ft | 140 kts | 193° |
| 2025-12-29 19:17 | 13.71038 | 100.76598 | 432 ft | 140 kts | 192° |
| 2025-12-29 19:17 | 13.70088 | 100.76350 | 238 ft | 140 kts | 193° |
| 2025-12-29 19:18 | 13.67435 | 100.75647 | 19 ft | 103 kts | 194° |